Time;durP1;ratioP1;P1;durP2;ratioP2;P2;SDS_P1;SDS_P2;PMS_P1;PMS_P2;Temp;Humidity;BMP_temperature;BMP_pressure;BME280_temperature;BME280_humidity;BME280_pressure;Samples;Min_cycle;Max_cycle;Signal;HPM_P1;HPM_P2
2022/08/08 00:01:41;;;;;;;8.52;4.65;;;;;;;21.43;59.92;93093.22;2060169;69;20676;-73
2022/08/08 00:04:15;;;;;;;10.82;4.97;;;;;;;21.43;59.42;93104.69;2059933;69;20506;-72
2022/08/08 00:06:51;;;;;;;7.72;4.60;;;;;;;21.16;62.67;93096.75;2059849;69;20497;-72
2022/08/08 00:09:24;;;;;;;7.40;4.82;;;;;;;21.21;62.39;93099.06;2060240;69;20618;-71
2022/08/08 00:11:58;;;;;;;7.85;4.35;;;;;;;21.29;61.62;93099.28;2068105;69;20144;-72
2022/08/08 00:14:56;;;;;;;7.35;4.68;;;;;;;21.21;61.72;93095.44;2074278;69;20231;-72
2022/08/08 00:17:38;;;;;;;6.25;4.45;;;;;;;21.40;59.93;93097.47;2074254;69;20558;-72
2022/08/08 00:20:09;;;;;;;7.17;4.60;;;;;;;21.35;60.55;93100.88;2074366;69;20188;-71
2022/08/08 00:22:46;;;;;;;6.38;4.63;;;;;;;21.36;60.17;93090.88;2070453;69;20319;-72
2022/08/08 00:25:23;;;;;;;8.10;4.50;;;;;;;21.46;59.11;93091.88;2073998;69;20232;-72
2022/08/08 00:27:53;;;;;;;8.63;4.70;;;;;;;21.15;61.63;93089.56;2074308;69;20250;-71
2022/08/08 00:30:20;;;;;;;7.32;5.10;;;;;;;20.90;61.73;93091.03;2075096;69;20156;-71
2022/08/08 00:32:48;;;;;;;6.78;5.10;;;;;;;21.16;61.76;93091.75;2071705;69;20182;-70
2022/08/08 00:35:33;;;;;;;11.05;5.28;;;;;;;21.06;62.87;93088.59;2074884;69;20249;-71
2022/08/08 00:38:24;;;;;;;8.00;5.18;;;;;;;21.09;62.88;93086.53;2071581;69;20163;-71
2022/08/08 00:41:11;;;;;;;8.35;5.10;;;;;;;21.14;62.14;93085.25;2075115;69;20136;-71
2022/08/08 00:44:08;;;;;;;6.53;5.13;;;;;;;21.08;62.29;93085.81;2071674;69;20156;-72
2022/08/08 00:47:12;;;;;;;7.47;5.10;;;;;;;21.05;63.07;93082.16;2071443;69;20210;-71
2022/08/08 00:50:11;;;;;;;7.97;4.90;;;;;;;21.12;61.09;93080.22;2074959;69;20155;-72
2022/08/08 00:52:45;;;;;;;6.50;5.07;;;;;;;21.02;62.13;93091.34;2071553;69;20258;-71
2022/08/08 00:55:49;;;;;;;8.60;5.38;;;;;;;20.65;63.79;93090.31;2071713;69;20147;-72
2022/08/08 00:58:40;;;;;;;7.43;5.00;;;;;;;20.83;62.30;93097.97;2065344;69;20249;-71
2022/08/08 01:01:12;;;;;;;8.32;5.55;;;;;;;21.08;62.36;93094.41;2072278;69;20152;-72
2022/08/08 01:04:17;;;;;;;8.63;5.32;;;;;;;21.06;61.97;93089.34;2071798;69;20183;-73
2022/08/08 01:07:22;;;;;;;10.77;5.30;;;;;;;21.12;61.36;93085.19;2057367;69;20145;-72
2022/08/08 01:10:23;;;;;;;9.18;4.88;;;;;;;21.11;61.75;93089.44;2052841;69;20306;-72
2022/08/08 01:13:28;;;;;;;6.35;5.18;;;;;;;21.16;61.67;93083.16;2052976;69;20593;-72
2022/08/08 01:16:19;;;;;;;9.68;5.22;;;;;;;21.05;62.71;93087.88;2054244;69;20668;-71
2022/08/08 01:18:58;;;;;;;7.97;5.03;;;;;;;21.00;63.70;93080.59;2054560;69;20181;-71
2022/08/08 01:21:39;;;;;;;7.97;5.38;;;;;;;21.04;62.09;93086.44;2052375;69;20189;-72
2022/08/08 01:24:36;;;;;;;8.68;4.70;;;;;;;21.06;62.81;93083.59;2054843;69;20165;-71
2022/08/08 01:27:30;;;;;;;7.82;4.95;;;;;;;21.14;61.36;93082.38;2054944;69;20333;-71
2022/08/08 01:30:26;;;;;;;5.63;4.70;;;;;;;21.08;62.76;93076.50;2054504;69;20161;-71
2022/08/08 01:33:04;;;;;;;7.43;4.95;;;;;;;20.95;62.60;93075.44;2054406;69;20497;-71
2022/08/08 01:35:54;;;;;;;6.35;5.20;;;;;;;20.88;63.20;93071.66;2057490;69;20169;-71
2022/08/08 01:38:26;;;;;;;7.95;5.00;;;;;;;20.94;62.83;93065.38;2057434;69;20165;-71
2022/08/08 01:41:12;;;;;;;7.15;5.40;;;;;;;20.96;62.19;93063.31;2063636;69;20220;-72
2022/08/08 01:43:52;;;;;;;7.45;5.30;;;;;;;20.98;60.83;93069.09;2070720;69;20838;-71
2022/08/08 01:46:42;;;;;;;6.40;5.30;;;;;;;20.95;62.82;93066.84;2070774;69;20143;-72
2022/08/08 01:49:38;;;;;;;6.80;5.38;;;;;;;20.75;63.50;93075.56;2070737;69;20144;-73
2022/08/08 01:52:13;;;;;;;7.75;5.00;;;;;;;20.79;63.02;93072.81;2070466;69;20156;-71
2022/08/08 01:55:11;;;;;;;8.40;5.53;;;;;;;20.29;65.11;93070.63;2071055;69;20269;-71
2022/08/08 01:58:02;;;;;;;8.45;5.35;;;;;;;20.77;62.84;93073.50;2070835;69;20511;-71
2022/08/08 02:00:43;;;;;;;7.78;5.70;;;;;;;20.83;63.64;93075.81;2070845;69;20858;-72
2022/08/08 02:03:27;;;;;;;7.00;5.22;;;;;;;20.80;62.91;93068.56;2070939;69;20235;-72
2022/08/08 02:06:13;;;;;;;7.00;5.22;;;;;;;20.88;61.86;93076.66;2074322;69;20160;-72
2022/08/08 02:09:07;;;;;;;8.98;5.88;;;;;;;20.77;64.70;93073.50;2074434;69;20139;-71
2022/08/08 02:11:46;;;;;;;6.82;4.88;;;;;;;20.90;62.47;93076.72;2071190;69;20268;-69
2022/08/08 02:14:41;;;;;;;9.35;5.28;;;;;;;20.89;62.73;93072.38;2074550;69;20240;-73
2022/08/08 02:17:19;;;;;;;7.45;5.18;;;;;;;20.95;61.33;93079.03;2074311;69;20172;-71
2022/08/08 02:19:56;;;;;;;7.25;5.05;;;;;;;20.84;63.50;93080.13;2073741;69;20156;-71
2022/08/08 02:22:55;;;;;;;12.68;5.20;;;;;;;20.72;62.39;93085.50;2071117;69;20132;-72
2022/08/08 02:25:47;;;;;;;6.63;5.10;;;;;;;20.99;61.82;93082.00;2071085;69;20144;-72
2022/08/08 02:28:48;;;;;;;5.18;4.68;;;;;;;20.94;60.99;93086.16;2071394;69;20240;-73
2022/08/08 02:31:20;;;;;;;7.00;5.45;;;;;;;20.89;61.85;93076.00;2070953;69;20223;-72
2022/08/08 02:34:05;;;;;;;6.30;5.47;;;;;;;20.89;62.13;93083.81;2071284;69;20544;-72
2022/08/08 02:36:39;;;;;;;7.85;5.05;;;;;;;20.98;62.49;93089.13;2071334;69;20492;-73
2022/08/08 02:39:19;;;;;;;7.07;5.03;;;;;;;20.94;62.98;93085.44;2071392;69;20217;-73
2022/08/08 02:42:09;;;;;;;8.55;5.30;;;;;;;20.86;63.52;93083.06;2071437;69;20568;-73
2022/08/08 02:45:00;;;;;;;8.60;5.30;;;;;;;20.75;64.45;93081.28;2074802;69;20140;-73
2022/08/08 02:47:47;;;;;;;9.13;5.45;;;;;;;20.77;63.49;93079.22;2071215;69;20687;-73
2022/08/08 02:50:46;;;;;;;9.23;5.30;;;;;;;20.95;61.84;93095.47;2071313;69;20211;-73
2022/08/08 02:53:50;;;;;;;9.57;5.60;;;;;;;20.29;65.18;93093.47;2071364;69;20731;-73
2022/08/08 02:56:35;;;;;;;6.82;5.70;;;;;;;20.70;62.49;93088.28;2072096;69;20147;-75
2022/08/08 02:59:39;;;;;;;7.60;5.05;;;;;;;20.93;60.10;93098.25;2068922;69;20328;-73
2022/08/08 03:02:26;;;;;;;7.63;5.72;;;;;;;20.89;62.63;93098.13;2075140;69;20164;-73
2022/08/08 03:04:55;;;;;;;9.05;5.45;;;;;;;20.97;61.50;93104.09;2071837;69;20131;-71
2022/08/08 03:07:23;;;;;;;7.00;4.90;;;;;;;20.90;61.84;93097.47;2075098;69;20148;-74
2022/08/08 03:09:53;;;;;;;9.20;5.30;;;;;;;20.91;62.27;93110.38;2074800;69;20147;-72
2022/08/08 03:12:47;;;;;;;9.25;5.53;;;;;;;20.46;65.81;93109.03;2071341;69;20167;-72
2022/08/08 03:15:44;;;;;;;9.02;5.82;;;;;;;20.22;65.05;93111.84;2071298;69;20216;-73
2022/08/08 03:18:21;;;;;;;9.95;6.13;;;;;;;20.27;65.16;93101.28;2071147;69;20151;-73
2022/08/08 03:20:49;;;;;;;8.13;5.78;;;;;;;20.57;63.22;93112.94;2068812;69;20155;-73
2022/08/08 03:23:20;;;;;;;8.60;5.75;;;;;;;20.65;63.05;93107.47;2071329;69;20168;-72
2022/08/08 03:25:48;;;;;;;10.55;5.60;;;;;;;20.67;62.93;93109.66;2071173;69;20201;-72
2022/08/08 03:28:20;;;;;;;11.70;6.95;;;;;;;20.60;64.00;93111.59;2074573;69;20646;-73
2022/08/08 03:30:48;;;;;;;7.72;6.10;;;;;;;20.66;62.49;93111.78;2071276;69;20192;-74
2022/08/08 03:33:17;;;;;;;8.95;5.93;;;;;;;20.64;64.27;93111.72;2071166;69;20164;-73
2022/08/08 03:35:48;;;;;;;7.05;5.38;;;;;;;20.63;64.28;93118.84;2071240;69;20200;-73
2022/08/08 03:38:15;;;;;;;11.30;5.50;;;;;;;20.65;61.98;93110.31;2068410;69;20265;-72
2022/08/08 03:40:51;;;;;;;6.63;5.35;;;;;;;20.59;63.53;93123.72;2071222;69;20568;-73
2022/08/08 03:43:17;;;;;;;9.57;6.10;;;;;;;20.30;64.71;93112.13;2074620;69;20198;-72
2022/08/08 03:45:45;;;;;;;6.25;5.07;;;;;;;20.52;62.25;93119.94;2074515;69;20170;-73
2022/08/08 03:48:11;;;;;;;8.25;5.43;;;;;;;20.49;62.60;93113.44;2074430;69;20266;-73
2022/08/08 03:50:46;;;;;;;6.63;5.45;;;;;;;20.50;61.62;93117.03;2071177;69;20239;-72
2022/08/08 03:53:16;;;;;;;9.32;6.18;;;;;;;20.39;63.85;93118.81;2071172;69;20152;-73
2022/08/08 03:55:45;;;;;;;7.32;6.25;;;;;;;20.21;63.86;93116.13;2071166;69;20172;-73
2022/08/08 03:58:22;;;;;;;9.07;6.15;;;;;;;19.84;67.32;93116.31;2071183;69;20147;-73
2022/08/08 04:00:56;;;;;;;5.88;4.90;;;;;;;20.30;63.49;93114.25;2071179;69;20166;-73
2022/08/08 04:03:34;;;;;;;7.88;6.05;;;;;;;20.28;63.53;93108.44;2068393;69;20164;-74
2022/08/08 04:06:05;;;;;;;7.25;5.68;;;;;;;20.28;63.84;93108.44;2071160;69;20152;-73
2022/08/08 04:08:35;;;;;;;8.75;5.90;;;;;;;20.24;64.80;93114.03;2071173;69;20148;-74
2022/08/08 04:11:09;;;;;;;7.38;5.88;;;;;;;20.25;63.67;93115.50;2071170;69;20144;-73
2022/08/08 04:13:36;;;;;;;10.65;6.50;;;;;;;20.35;63.47;93112.25;2071192;69;20409;-73
2022/08/08 04:16:01;;;;;;;9.63;6.00;;;;;;;20.34;62.76;93111.50;2070369;69;20507;-73
2022/08/08 04:18:28;;;;;;;7.90;5.53;;;;;;;20.37;62.53;93115.88;2067843;69;20187;-72
2022/08/08 04:20:53;;;;;;;10.65;6.03;;;;;;;20.32;63.29;93111.44;2067813;69;20282;-71
2022/08/08 04:23:20;;;;;;;9.38;6.05;;;;;;;20.16;64.03;93108.06;2067798;69;20140;-72
2022/08/08 04:25:46;;;;;;;7.93;5.57;;;;;;;20.29;63.98;93113.50;2067769;69;20184;-72
2022/08/08 04:28:12;;;;;;;10.43;5.70;;;;;;;20.25;64.95;93113.41;2071434;69;20160;-72
2022/08/08 04:30:38;;;;;;;6.93;5.90;;;;;;;20.19;64.23;93118.16;2067858;69;20144;-71
2022/08/08 04:33:04;;;;;;;7.30;5.85;;;;;;;20.30;63.64;93117.09;2067728;69;20187;-71
2022/08/08 04:35:32;;;;;;;11.57;6.05;;;;;;;20.00;65.32;93120.44;2071119;69;20187;-71
2022/08/08 04:37:58;;;;;;;10.05;5.95;;;;;;;19.92;65.94;93125.88;2068218;69;20137;-74
2022/08/08 04:40:29;;;;;;;6.93;5.80;;;;;;;20.33;63.57;93123.59;2065746;69;20247;-71
2022/08/08 04:42:56;;;;;;;66.25;39.60;;;;;;;20.30;65.07;93128.53;2067742;69;20152;-72
2022/08/08 04:45:24;;;;;;;19.45;9.98;;;;;;;20.36;64.10;93128.00;2067623;69;20626;-73
2022/08/08 04:47:50;;;;;;;8.95;6.95;;;;;;;20.37;63.79;93127.31;2067231;69;20160;-72
2022/08/08 04:50:17;;;;;;;16.83;10.15;;;;;;;20.35;64.50;93135.13;2066935;69;20148;-73
2022/08/08 04:52:42;;;;;;;10.60;7.60;;;;;;;20.36;63.83;93131.59;2067256;69;20163;-72
2022/08/08 04:55:15;;;;;;;29.73;18.80;;;;;;;20.39;63.43;93133.13;2067658;69;20171;-72
2022/08/08 04:57:43;;;;;;;10.73;7.13;;;;;;;19.98;66.90;93128.97;2067661;69;20232;-71
2022/08/08 05:00:10;;;;;;;15.88;11.85;;;;;;;20.22;64.63;93131.88;2067433;69;20503;-73
2022/08/08 05:02:39;;;;;;;9.07;7.38;;;;;;;20.19;64.37;93126.75;2070604;69;20171;-72
2022/08/08 05:05:05;;;;;;;34.03;18.73;;;;;;;20.41;63.35;93136.03;2067619;69;20239;-72
2022/08/08 05:07:33;;;;;;;15.68;9.68;;;;;;;20.52;62.02;93137.81;2067739;69;20195;-72
2022/08/08 05:09:59;;;;;;;7.22;5.80;;;;;;;20.67;61.59;93138.28;2067740;69;20145;-72
2022/08/08 05:12:25;;;;;;;10.00;6.53;;;;;;;20.53;63.29;93136.44;2070259;69;20488;-72
2022/08/08 05:14:51;;;;;;;8.77;6.60;;;;;;;20.21;65.36;93139.00;2071049;69;20159;-72
2022/08/08 05:17:16;;;;;;;8.45;6.60;;;;;;;19.94;66.72;93139.53;2074813;69;20524;-72
2022/08/08 05:19:42;;;;;;;8.27;7.00;;;;;;;19.85;67.09;93140.66;2074886;69;20144;-74
2022/08/08 05:22:09;;;;;;;8.60;6.80;;;;;;;20.31;64.16;93144.28;2074445;69;20140;-73
2022/08/08 05:24:38;;;;;;;9.85;6.90;;;;;;;20.45;64.77;93141.88;2068746;69;20148;-73
2022/08/08 05:27:05;;;;;;;7.65;5.45;;;;;;;20.63;61.91;93147.47;2071602;69;20156;-73
2022/08/08 05:29:35;;;;;;;9.25;6.53;;;;;;;20.66;62.86;93139.66;2071509;69;20139;-73
2022/08/08 05:32:03;;;;;;;10.02;6.50;;;;;;;20.65;63.38;93143.91;2068626;69;20209;-73
2022/08/08 05:34:50;;;;;;;7.50;6.68;;;;;;;20.56;63.66;93154.38;2071529;69;20144;-73
2022/08/08 05:37:26;;;;;;;10.32;7.00;;;;;;;20.58;63.13;93142.28;2068760;69;20144;-74
2022/08/08 05:39:54;;;;;;;7.53;6.73;;;;;;;20.68;62.94;93151.91;2071523;69;20251;-73
2022/08/08 05:42:46;;;;;;;9.95;6.32;;;;;;;20.87;62.29;93149.59;2071550;69;20139;-73
2022/08/08 05:45:13;;;;;;;6.03;5.43;;;;;;;20.74;62.03;93159.94;2074871;69;20204;-72
2022/08/08 05:47:41;;;;;;;9.25;6.78;;;;;;;20.73;63.05;93155.63;2071430;69;20151;-73
2022/08/08 05:50:10;;;;;;;10.20;7.15;;;;;;;20.67;62.96;93161.88;2071525;69;20140;-73
2022/08/08 05:52:37;;;;;;;7.22;6.30;;;;;;;20.72;63.25;93165.59;2071492;69;20199;-73
2022/08/08 05:55:08;;;;;;;8.68;6.88;;;;;;;20.57;64.84;93167.28;2068728;69;20144;-73
2022/08/08 05:57:36;;;;;;;8.13;6.50;;;;;;;20.31;65.18;93182.19;2068755;69;20557;-74
2022/08/08 06:00:06;;;;;;;8.10;6.38;;;;;;;20.80;62.49;93175.16;2071404;69;20236;-73
2022/08/08 06:05:54;;;;;;;9.13;6.72;;;;;;;20.80;61.78;93186.63;2071372;69;20249;-74
2022/08/08 06:08:29;;;;;;;10.23;7.75;;;;;;;20.00;66.13;93183.31;2071443;69;20619;-73
2022/08/08 06:10:59;;;;;;;9.88;7.65;;;;;;;19.60;67.69;93176.94;2071409;69;20155;-74
2022/08/08 06:13:27;;;;;;;11.23;7.38;;;;;;;19.94;66.28;93185.25;2071360;69;20140;-74
2022/08/08 06:15:54;;;;;;;7.82;6.60;;;;;;;20.38;63.99;93179.50;2071368;69;20178;-74
2022/08/08 06:18:44;;;;;;;9.60;6.95;;;;;;;20.11;66.15;93184.38;2070136;69;20171;-74
2022/08/08 06:21:10;;;;;;;13.20;7.47;;;;;;;19.53;68.79;93181.69;2071406;69;20254;-74
2022/08/08 06:23:37;;;;;;;11.18;7.53;;;;;;;19.38;69.99;93188.28;2071411;69;20611;-73
2022/08/08 06:26:09;;;;;;;11.75;8.52;;;;;;;19.14;70.87;93182.41;2068427;69;20587;-74
2022/08/08 06:28:52;;;;;;;;;;;;;;;19.92;67.72;93185.88;2071637;69;20180;-74
2022/08/08 06:31:20;;;;;;;12.52;8.73;;;;;;;19.41;70.19;93192.66;2074246;69;20128;-75
2022/08/08 06:34:00;;;;;;;9.30;6.88;;;;;;;20.03;66.88;93193.41;2070742;69;20266;-74
2022/08/08 06:36:35;;;;;;;12.90;8.05;;;;;;;19.51;70.00;93192.28;2071400;69;20235;-74
2022/08/08 06:39:04;;;;;;;11.60;7.80;;;;;;;19.89;68.09;93192.94;2071496;69;20128;-75
2022/08/08 06:41:32;;;;;;;9.77;8.00;;;;;;;20.27;65.85;93193.50;2071319;69;20164;-74
2022/08/08 06:44:02;;;;;;;16.02;10.35;;;;;;;20.38;65.93;93205.25;2071369;69;20196;-74
2022/08/08 06:46:32;;;;;;;17.02;10.85;;;;;;;20.50;65.35;93199.97;2071256;69;20240;-73
2022/08/08 06:48:59;;;;;;;12.45;8.77;;;;;;;20.41;66.31;93206.78;2071293;69;20143;-74
2022/08/08 06:51:25;;;;;;;13.50;8.70;;;;;;;20.76;63.62;93208.66;2074769;69;20163;-74
2022/08/08 06:53:54;;;;;;;12.48;7.50;;;;;;;20.58;65.21;93208.06;2071351;69;20239;-74
2022/08/08 06:56:22;;;;;;;9.23;7.45;;;;;;;20.67;63.24;93212.66;2071376;69;20220;-74
2022/08/08 06:58:48;;;;;;;10.63;7.60;;;;;;;20.88;62.44;93217.59;2070741;69;20147;-74
2022/08/08 07:01:16;;;;;;;11.73;8.20;;;;;;;20.75;63.99;93219.34;2071212;69;20575;-73
2022/08/08 07:04:01;;;;;;;154.27;70.07;;;;;;;20.83;63.07;93226.72;2074787;69;20217;-74
2022/08/08 07:06:32;;;;;;;19.20;10.77;;;;;;;20.99;62.32;93221.50;2071268;69;20160;-74
2022/08/08 07:09:08;;;;;;;15.15;9.55;;;;;;;20.96;63.84;93231.41;2071305;69;20224;-74
2022/08/08 07:11:40;;;;;;;14.15;8.32;;;;;;;20.73;63.31;93227.88;2074671;69;20171;-74
2022/08/08 07:14:07;;;;;;;25.38;11.80;;;;;;;20.98;62.39;93229.38;2070453;69;20164;-72
2022/08/08 07:16:47;;;;;;;9.85;8.05;;;;;;;20.68;64.88;93229.13;2070993;69;20148;-73
2022/08/08 07:19:34;;;;;;;11.88;8.10;;;;;;;21.02;62.95;93235.19;2074554;69;20140;-73
2022/08/08 07:22:06;;;;;;;11.20;8.02;;;;;;;21.04;63.83;93228.81;2074733;69;20196;-75
2022/08/08 07:24:34;;;;;;;13.55;8.20;;;;;;;21.06;63.57;93240.31;2067406;69;20164;-74
2022/08/08 07:27:04;;;;;;;12.98;7.40;;;;;;;21.26;62.67;93237.34;2069779;69;20187;-74
2022/08/08 07:29:33;;;;;;;10.15;7.43;;;;;;;21.50;61.94;93240.94;2069008;69;20243;-72
2022/08/08 07:32:00;;;;;;;12.02;7.90;;;;;;;21.42;63.17;93242.84;2066673;69;20166;-75
2022/08/08 07:34:27;;;;;;;10.45;7.40;;;;;;;21.54;61.19;93237.47;2069339;69;20190;-75
2022/08/08 07:36:56;;;;;;;12.13;8.23;;;;;;;21.52;61.91;93237.38;2066709;69;20175;-75
2022/08/08 07:39:23;;;;;;;14.65;8.02;;;;;;;20.52;64.81;93237.91;2071169;69;20140;-74
2022/08/08 07:41:49;;;;;;;55.38;24.40;;;;;;;21.11;63.70;93241.88;2071172;69;20174;-75
2022/08/08 07:44:19;;;;;;;21.17;11.80;;;;;;;21.65;60.87;93244.94;2071329;69;20486;-75
2022/08/08 07:46:45;;;;;;;8.23;7.32;;;;;;;21.39;61.82;93241.31;2071070;69;20221;-75
2022/08/08 07:49:14;;;;;;;10.88;6.90;;;;;;;21.65;61.59;93242.06;2068490;69;20171;-75
2022/08/08 07:51:42;;;;;;;9.93;6.35;;;;;;;22.04;61.16;93238.13;2071181;69;20151;-75
2022/08/08 07:54:22;;;;;;;9.80;7.45;;;;;;;21.80;61.40;93243.19;2071142;69;20144;-75
2022/08/08 07:56:59;;;;;;;7.80;6.38;;;;;;;22.12;60.62;93234.03;2071070;69;20592;-75
2022/08/08 07:59:33;;;;;;;8.85;7.00;;;;;;;22.34;60.81;93237.47;2074521;69;20248;-76
2022/08/08 08:02:04;;;;;;;8.57;6.88;;;;;;;22.63;60.97;93238.91;2071055;69;20635;-76
2022/08/08 08:04:42;;;;;;;11.35;7.15;;;;;;;22.79;58.91;93229.97;2071194;69;20201;-76
2022/08/08 08:07:09;;;;;;;8.68;6.88;;;;;;;23.12;61.05;93227.88;2068461;69;20511;-76
2022/08/08 08:09:40;;;;;;;7.90;6.90;;;;;;;22.68;58.20;93231.88;2071237;69;20172;-76
2022/08/08 08:12:11;;;;;;;8.40;7.03;;;;;;;23.86;56.66;93230.16;2074644;69;20138;-76
2022/08/08 08:14:57;;;;;;;8.60;6.70;;;;;;;24.17;57.37;93226.44;2071143;69;20479;-75
2022/08/08 08:17:25;;;;;;;9.07;6.25;;;;;;;24.55;56.97;93225.69;2073884;69;20162;-76
2022/08/08 08:20:03;;;;;;;11.55;6.35;;;;;;;24.88;53.13;93218.34;2071065;69;20623;-76
2022/08/08 08:22:29;;;;;;;7.45;6.30;;;;;;;24.99;53.91;93214.16;2071156;69;20595;-76
2022/08/08 08:24:55;;;;;;;6.80;6.05;;;;;;;25.26;52.57;93223.22;2071112;69;20241;-76
2022/08/08 08:27:20;;;;;;;7.68;5.63;;;;;;;25.44;52.68;93217.72;2071115;69;20151;-76
2022/08/08 08:29:53;;;;;;;6.20;5.50;;;;;;;25.44;52.57;93217.72;2068428;69;20162;-75
2022/08/08 08:32:20;;;;;;;6.55;5.22;;;;;;;25.18;51.59;93212.31;2071050;69;20238;-76
2022/08/08 08:34:46;;;;;;;6.15;5.50;;;;;;;25.89;51.71;93212.53;2071062;69;20136;-76
2022/08/08 08:37:11;;;;;;;11.27;6.43;;;;;;;26.83;51.34;93213.47;2071081;69;20143;-76
2022/08/08 08:39:39;;;;;;;9.70;5.25;;;;;;;26.85;48.05;93207.72;2071113;69;20205;-76
2022/08/08 08:42:06;;;;;;;7.32;5.70;;;;;;;26.80;47.74;93209.84;2071126;69;20344;-76
2022/08/08 08:44:31;;;;;;;6.97;5.20;;;;;;;26.65;45.19;93216.94;2074460;69;20148;-77
2022/08/08 08:46:59;;;;;;;5.45;4.95;;;;;;;26.69;44.89;93214.09;2071014;69;20180;-76
2022/08/08 08:49:26;;;;;;;5.15;4.65;;;;;;;27.02;47.77;93212.16;2071266;69;20520;-76
2022/08/08 08:51:59;;;;;;;5.18;4.50;;;;;;;27.41;46.23;93209.56;2071653;69;20659;-77
2022/08/08 08:54:26;;;;;;;5.57;5.03;;;;;;;26.65;44.27;93214.03;2071714;69;20180;-76
2022/08/08 08:56:54;;;;;;;8.52;4.90;;;;;;;27.60;46.50;93214.00;2071670;69;20166;-77
2022/08/08 08:59:22;;;;;;;7.35;4.50;;;;;;;27.98;45.29;93206.97;2071545;69;20132;-77
2022/08/08 09:01:55;;;;;;;6.00;4.57;;;;;;;27.67;45.40;93208.25;2071508;69;20152;-77
2022/08/08 09:04:33;;;;;;;5.25;4.38;;;;;;;28.10;40.14;93212.06;2071572;69;20309;-77
2022/08/08 09:07:02;;;;;;;4.75;4.35;;;;;;;27.70;42.52;93195.97;2071621;69;20140;-76
2022/08/08 09:09:33;;;;;;;4.30;3.90;;;;;;;29.09;43.61;93199.94;2071520;69;20246;-76
2022/08/08 09:12:11;;;;;;;4.80;4.00;;;;;;;29.48;41.55;93205.66;2068995;69;20143;-77
2022/08/08 09:14:43;;;;;;;9.40;3.78;;;;;;;29.56;40.14;93199.16;2071430;69;20148;-76
2022/08/08 09:17:10;;;;;;;4.00;3.70;;;;;;;29.73;41.71;93202.72;2071484;69;20170;-77
2022/08/08 09:19:36;;;;;;;7.45;4.40;;;;;;;28.37;40.47;93201.31;2071523;69;20567;-77
2022/08/08 09:22:05;;;;;;;5.32;4.15;;;;;;;29.15;39.99;93204.28;2075004;69;20175;-77
2022/08/08 09:24:37;;;;;;;4.70;3.70;;;;;;;29.19;39.72;93199.19;2071589;69;20231;-77
2022/08/08 09:27:11;;;;;;;5.45;3.63;;;;;;;29.47;37.38;93207.13;2071616;69;20159;-77
2022/08/08 09:29:51;;;;;;;3.88;3.58;;;;;;;29.24;39.69;93185.41;2071649;69;20231;-77
2022/08/08 09:32:34;;;;;;;5.75;3.75;;;;;;;29.84;39.11;93198.31;2071581;69;20217;-78
2022/08/08 09:35:02;;;;;;;4.63;3.85;;;;;;;30.20;38.21;93190.94;2071649;69;20144;-78
2022/08/08 09:37:29;;;;;;;3.60;3.30;;;;;;;29.73;35.28;93194.00;2074889;69;20148;-78
2022/08/08 09:40:03;;;;;;;3.90;3.42;;;;;;;29.86;37.05;93181.63;2071553;69;20223;-78
2022/08/08 09:42:43;;;;;;;6.68;3.55;;;;;;;29.65;35.30;93186.06;2075045;69;20140;-78
2022/08/08 09:45:21;;;;;;;4.20;3.33;;;;;;;29.65;37.49;93176.66;2071759;69;20660;-78
2022/08/08 09:47:48;;;;;;;4.70;3.40;;;;;;;30.20;37.27;93174.25;2074923;69;20582;-78
2022/08/08 09:50:19;;;;;;;4.05;3.42;;;;;;;31.07;36.10;93175.81;2074594;69;20147;-78
2022/08/08 09:52:52;;;;;;;4.00;3.25;;;;;;;31.92;36.58;93172.78;2074943;69;20529;-78
2022/08/08 09:55:19;;;;;;;4.20;3.60;;;;;;;31.20;34.52;93164.06;2074983;69;20257;-78
2022/08/08 09:57:48;;;;;;;4.28;3.20;;;;;;;31.55;35.66;93162.28;2071503;69;20151;-78
2022/08/08 10:00:16;;;;;;;3.67;3.38;;;;;;;32.10;34.67;93161.63;2071222;69;20174;-78
2022/08/08 10:02:45;;;;;;;4.50;3.30;;;;;;;31.96;35.27;93155.28;2074743;69;20184;-78
2022/08/08 10:05:15;;;;;;;4.30;3.15;;;;;;;31.40;35.16;93155.16;2074979;69;20131;-78
2022/08/08 10:07:57;;;;;;;3.38;3.08;;;;;;;32.26;33.90;93149.06;2071515;69;20144;-78
2022/08/08 10:10:38;;;;;;;3.00;2.80;;;;;;;32.77;33.78;93157.06;2074898;69;20136;-78
2022/08/08 10:13:21;;;;;;;3.35;3.05;;;;;;;32.59;33.23;93152.22;2071049;69;20144;-78
2022/08/08 10:15:49;;;;;;;3.08;2.85;;;;;;;31.85;30.60;93148.88;2071507;69;20227;-78
2022/08/08 10:18:32;;;;;;;3.30;3.00;;;;;;;33.31;31.40;93148.88;2074795;69;20152;-78
2022/08/08 10:21:10;;;;;;;4.20;2.70;;;;;;;32.42;30.65;93153.94;2074833;69;20576;-78
2022/08/08 10:23:38;;;;;;;3.28;2.97;;;;;;;33.29;32.13;93146.00;2072916;69;20606;-78
2022/08/08 10:26:05;;;;;;;3.10;2.85;;;;;;;33.62;31.38;93148.34;2071032;69;20172;-77
2022/08/08 10:28:32;;;;;;;3.28;2.50;;;;;;;33.45;29.24;93147.19;2071468;69;20156;-78
2022/08/08 10:32:30;;;;;;;2.75;2.50;;;;;;;33.62;30.18;93145.41;2071233;69;20486;-77
2022/08/08 10:33:47;;;;;;;2.65;2.33;;;;;;;33.11;30.33;93143.41;2071314;69;20176;-78
2022/08/08 10:36:15;;;;;;;3.42;2.30;;;;;;;34.29;30.09;93149.19;2071510;69;20144;-78
2022/08/08 10:38:41;;;;;;;3.08;2.70;;;;;;;34.08;29.37;93137.94;2070887;69;20660;-78
2022/08/08 10:41:16;;;;;;;4.15;2.45;;;;;;;34.37;28.76;93146.09;2067973;69;20140;-77
2022/08/08 10:43:42;;;;;;;3.20;2.33;;;;;;;34.00;27.85;93140.31;2071403;69;20140;-77
2022/08/08 10:46:24;;;;;;;3.42;1.85;;;;;;;33.52;27.21;93137.56;2071144;69;20605;-77
2022/08/08 10:48:55;;;;;;;2.72;2.08;;;;;;;33.59;27.49;93136.00;2071346;69;20148;-77
2022/08/08 10:51:26;;;;;;;3.08;1.90;;;;;;;34.54;27.16;93128.91;2071250;69;20147;-76
2022/08/08 10:53:54;;;;;;;3.28;1.70;;;;;;;35.98;25.38;93123.81;2067848;69;20139;-76
2022/08/08 10:56:23;;;;;;;2.85;1.50;;;;;;;36.93;25.00;93122.41;2071261;69;20146;-77
2022/08/08 10:59:08;;;;;;;3.08;1.92;;;;;;;37.50;23.14;93129.34;2067720;69;20185;-77
2022/08/08 11:01:36;;;;;;;1.70;1.60;;;;;;;38.36;22.95;93127.00;2071270;69;20171;-77
2022/08/08 11:04:07;;;;;;;2.15;1.60;;;;;;;39.34;21.61;93129.72;2071185;69;20183;-77
2022/08/08 11:06:34;;;;;;;1.38;1.17;;;;;;;41.68;20.11;93128.56;2071220;69;20147;-76
2022/08/08 11:09:06;;;;;;;1.55;1.38;;;;;;;42.97;17.90;93120.19;2071241;69;20237;-77
2022/08/08 11:11:36;;;;;;;;;;;;;;;44.61;15.58;93132.00;2071352;69;20196;-77
2022/08/08 11:14:02;;;;;;;1.40;1.30;;;;;;;44.52;15.06;93140.72;2070990;69;20064;-77
2022/08/08 11:16:30;;;;;;;1.30;1.20;;;;;;;44.28;14.99;93139.28;2070978;69;20164;-77
2022/08/08 11:18:57;;;;;;;1.52;1.20;;;;;;;45.00;15.40;93141.47;2067704;69;20172;-77
2022/08/08 11:21:24;;;;;;;2.65;1.25;;;;;;;46.95;14.78;93139.41;2071010;69;20150;-74
2022/08/08 11:23:54;;;;;;;3.53;1.30;;;;;;;47.05;13.51;93135.69;2070716;69;20149;-75
2022/08/08 11:26:20;;;;;;;2.00;0.95;;;;;;;46.86;11.81;93126.63;2067782;69;20167;-77
2022/08/08 11:28:50;;;;;;;1.30;1.13;;;;;;;48.30;13.02;93126.41;2070932;69;20233;-76
2022/08/08 11:31:17;;;;;;;2.20;1.23;;;;;;;51.17;11.87;93131.69;2071089;69;20199;-76
2022/08/08 11:33:51;;;;;;;3.13;1.20;;;;;;;49.07;11.57;93123.25;2071287;69;20137;-77
2022/08/08 11:36:17;;;;;;;2.90;1.10;;;;;;;52.62;11.33;93127.44;2067081;69;20156;-78
2022/08/08 11:38:45;;;;;;;1.65;1.20;;;;;;;50.08;11.88;93124.69;2070527;69;20163;-77
2022/08/08 11:41:11;;;;;;;1.95;1.10;;;;;;;50.90;10.46;93132.66;2070822;69;20140;-78
2022/08/08 11:43:38;;;;;;;1.52;1.05;;;;;;;52.13;10.20;93122.28;2070897;69;20523;-76
2022/08/08 11:46:05;;;;;;;1.48;1.17;;;;;;;48.03;11.23;93107.56;2070591;69;20167;-77
2022/08/08 11:48:31;;;;;;;2.10;1.10;;;;;;;51.46;10.02;93114.88;2070873;69;20258;-78
2022/08/08 11:50:58;;;;;;;1.27;1.08;;;;;;;50.53;9.82;93114.88;2071403;69;20148;-77
2022/08/08 11:53:25;;;;;;;3.28;1.10;;;;;;;52.16;10.16;93115.22;2071282;69;20148;-77
2022/08/08 11:55:51;;;;;;;1.33;1.00;;;;;;;49.33;10.05;93110.75;2071149;69;20175;-77
2022/08/08 11:58:18;;;;;;;1.80;1.10;;;;;;;51.38;9.63;93109.63;2070763;69;20195;-77
2022/08/08 12:00:45;;;;;;;2.10;1.20;;;;;;;52.55;9.27;93109.28;2070558;69;20140;-78
2022/08/08 12:03:22;;;;;;;1.80;1.10;;;;;;;49.50;10.58;93101.84;2070978;69;20144;-77
2022/08/08 12:05:50;;;;;;;1.27;0.90;;;;;;;49.81;9.79;93090.34;2071094;69;20210;-77
2022/08/08 12:08:28;;;;;;;1.35;0.90;;;;;;;51.70;9.76;93090.94;2067721;69;20751;-77